createdAt,value
2018-12-31T00:00:13.097Z,1020.93
2018-12-31T00:01:13.094Z,1020.94
2018-12-31T00:02:13.085Z,1020.97
2018-12-31T00:03:13.081Z,1020.93
2018-12-31T00:04:13.076Z,1020.96
2018-12-31T00:05:13.069Z,1021.00
2018-12-31T00:06:13.063Z,1020.99
2018-12-31T00:07:13.058Z,1021.00
2018-12-31T00:08:13.053Z,1020.99
2018-12-31T00:09:13.049Z,1021.00
2018-12-31T00:10:13.044Z,1021.02
2018-12-31T00:11:13.037Z,1020.97
2018-12-31T00:12:13.035Z,1020.95
2018-12-31T00:13:13.029Z,1021.00
2018-12-31T00:14:13.020Z,1020.98
2018-12-31T00:15:13.016Z,1020.97
2018-12-31T00:16:13.011Z,1020.99
2018-12-31T00:17:13.005Z,1021.01
2018-12-31T00:18:12.999Z,1020.96
2018-12-31T00:19:12.997Z,1020.95
2018-12-31T00:20:12.988Z,1020.96
2018-12-31T00:21:12.983Z,1020.99
2018-12-31T00:22:12.978Z,1021.03
2018-12-31T00:23:12.979Z,1021.00
2018-12-31T00:24:12.971Z,1021.00
2018-12-31T00:25:12.963Z,1021.00
2018-12-31T00:26:12.963Z,1020.96
2018-12-31T00:27:12.952Z,1021.01
2018-12-31T00:28:12.946Z,1021.05
2018-12-31T00:29:12.943Z,1021.04
2018-12-31T00:30:12.937Z,1021.05
2018-12-31T00:31:13.002Z,1020.96
2018-12-31T00:32:12.928Z,1020.93
2018-12-31T00:33:12.919Z,1020.95
2018-12-31T00:34:12.915Z,1020.96
2018-12-31T00:35:12.908Z,1020.94
2018-12-31T00:36:12.904Z,1021.00
2018-12-31T00:37:12.899Z,1020.99
2018-12-31T00:38:12.893Z,1020.99
2018-12-31T00:39:12.888Z,1021.01
2018-12-31T00:40:12.881Z,1021.05
2018-12-31T00:41:12.877Z,1021.05
2018-12-31T00:42:12.871Z,1021.03
2018-12-31T00:43:12.866Z,1021.04
2018-12-31T00:44:12.861Z,1021.03
2018-12-31T00:45:12.856Z,1021.05
2018-12-31T00:46:12.849Z,1021.07
2018-12-31T00:47:12.845Z,1021.05
2018-12-31T00:48:12.838Z,1021.07
2018-12-31T00:49:12.834Z,1021.10
2018-12-31T00:50:12.827Z,1021.07
2018-12-31T00:51:12.822Z,1021.09
2018-12-31T00:52:12.817Z,1021.06
2018-12-31T00:53:12.812Z,1021.02
2018-12-31T00:54:12.805Z,1021.06
2018-12-31T00:55:12.800Z,1021.02
2018-12-31T00:56:12.796Z,1021.02
2018-12-31T00:57:12.793Z,1021.04
2018-12-31T00:58:12.786Z,1021.01
2018-12-31T00:59:12.779Z,1021.00
2018-12-31T01:00:12.778Z,1021.03
2018-12-31T01:01:12.770Z,1021.02
2018-12-31T01:02:12.767Z,1021.05
2018-12-31T01:03:12.761Z,1021.07
2018-12-31T01:04:12.753Z,1021.03
2018-12-31T01:05:12.747Z,1021.08
2018-12-31T01:06:12.743Z,1021.10
2018-12-31T01:07:12.737Z,1021.10
2018-12-31T01:08:12.808Z,1021.12
2018-12-31T01:09:12.727Z,1021.17
2018-12-31T01:10:12.720Z,1021.17
2018-12-31T01:11:12.714Z,1021.11
2018-12-31T01:12:12.712Z,1021.12
2018-12-31T01:13:12.709Z,1021.06
2018-12-31T01:14:12.702Z,1021.08
2018-12-31T01:15:12.694Z,1021.09
2018-12-31T01:16:12.690Z,1021.05
2018-12-31T01:17:12.683Z,1021.06
2018-12-31T01:18:12.682Z,1021.01
2018-12-31T01:19:12.674Z,1021.00
2018-12-31T01:20:12.668Z,1021.00
2018-12-31T01:21:12.664Z,1021.00
2018-12-31T01:22:12.658Z,1020.96
2018-12-31T01:23:12.652Z,1020.97
2018-12-31T01:24:12.647Z,1020.97
2018-12-31T01:25:12.642Z,1021.01
2018-12-31T01:26:12.636Z,1021.01
2018-12-31T01:27:12.631Z,1021.06
2018-12-31T01:28:12.626Z,1021.02
2018-12-31T01:29:12.621Z,1021.04
2018-12-31T01:30:12.615Z,1021.07
2018-12-31T01:31:12.610Z,1021.10
2018-12-31T01:32:12.605Z,1021.12
2018-12-31T01:33:12.601Z,1021.12
2018-12-31T01:34:12.594Z,1021.13
2018-12-31T01:35:12.589Z,1021.12
2018-12-31T01:36:12.584Z,1021.16
2018-12-31T01:37:12.579Z,1021.15
2018-12-31T01:38:12.574Z,1021.17
2018-12-31T01:39:12.572Z,1021.15
2018-12-31T01:40:12.563Z,1021.12
2018-12-31T01:41:12.559Z,1021.12
2018-12-31T01:42:12.553Z,1021.09
2018-12-31T01:43:12.549Z,1021.11
2018-12-31T01:44:12.546Z,1021.11
2018-12-31T01:45:12.538Z,1021.13
2018-12-31T01:46:12.531Z,1021.12
2018-12-31T01:47:12.531Z,1021.13
2018-12-31T01:48:12.525Z,1021.16
2018-12-31T01:49:12.517Z,1021.11
2018-12-31T01:50:12.511Z,1021.09
2018-12-31T01:51:12.511Z,1021.10
2018-12-31T01:52:12.501Z,1021.08
2018-12-31T01:53:12.496Z,1021.15
2018-12-31T01:54:12.490Z,1021.16
2018-12-31T01:55:12.486Z,1021.08
2018-12-31T01:56:12.480Z,1021.15
2018-12-31T01:57:12.476Z,1021.13
2018-12-31T01:58:12.469Z,1021.14
2018-12-31T01:59:12.465Z,1021.13
2018-12-31T02:00:12.460Z,1021.20
2018-12-31T02:01:12.457Z,1021.20
2018-12-31T02:02:12.449Z,1021.23
2018-12-31T02:03:12.445Z,1021.24
2018-12-31T02:04:12.438Z,1021.19
2018-12-31T02:05:12.438Z,1021.22
2018-12-31T02:06:12.428Z,1021.17
2018-12-31T02:07:12.424Z,1021.16
2018-12-31T02:08:12.418Z,1021.14
2018-12-31T02:09:12.415Z,1021.14
2018-12-31T02:10:12.408Z,1021.14
2018-12-31T02:11:12.401Z,1021.18
2018-12-31T02:12:12.396Z,1021.16
2018-12-31T02:13:12.391Z,1021.16
2018-12-31T02:14:12.385Z,1021.17
2018-12-31T02:15:12.382Z,1021.19
2018-12-31T02:16:12.378Z,1021.20
2018-12-31T02:17:12.371Z,1021.20
2018-12-31T02:18:12.365Z,1021.20
2018-12-31T02:19:12.360Z,1021.28
2018-12-31T02:20:12.356Z,1021.26
2018-12-31T02:21:12.357Z,1021.26
2018-12-31T02:22:12.344Z,1021.23
2018-12-31T02:23:12.339Z,1021.19
2018-12-31T02:24:12.334Z,1021.16
2018-12-31T02:25:12.329Z,1021.15
2018-12-31T02:26:13.648Z,1021.16
2018-12-31T02:27:12.319Z,1021.12
2018-12-31T02:28:12.314Z,1021.14
2018-12-31T02:29:12.311Z,1021.09
2018-12-31T02:30:12.304Z,1021.10
2018-12-31T02:31:12.298Z,1021.11
2018-12-31T02:32:12.292Z,1021.13
2018-12-31T02:33:12.288Z,1021.14
2018-12-31T02:34:12.282Z,1021.19
2018-12-31T02:35:12.277Z,1021.19
2018-12-31T02:36:12.271Z,1021.20
2018-12-31T02:37:12.267Z,1021.17
2018-12-31T02:38:12.261Z,1021.15
2018-12-31T02:39:12.257Z,1021.12
2018-12-31T02:40:12.250Z,1021.13
2018-12-31T02:41:12.245Z,1021.13
2018-12-31T02:42:12.245Z,1021.12
2018-12-31T02:43:12.235Z,1021.05
2018-12-31T02:44:12.229Z,1021.13
2018-12-31T02:45:12.226Z,1021.08
2018-12-31T02:46:12.218Z,1021.12
2018-12-31T02:47:12.218Z,1021.07
2018-12-31T02:48:12.209Z,1021.07
2018-12-31T02:49:12.205Z,1021.09
2018-12-31T02:50:12.202Z,1021.05
2018-12-31T02:51:12.202Z,1021.02
2018-12-31T02:52:12.189Z,1021.01
2018-12-31T02:53:12.183Z,1021.03
2018-12-31T02:54:12.177Z,1021.02
2018-12-31T02:55:12.172Z,1020.99
2018-12-31T02:56:12.169Z,1021.03
2018-12-31T02:57:12.163Z,1020.98
2018-12-31T02:58:12.156Z,1021.00
2018-12-31T02:59:12.151Z,1020.99
2018-12-31T03:00:12.149Z,1020.99
2018-12-31T03:01:12.143Z,1021.01
2018-12-31T03:02:12.135Z,1020.96
2018-12-31T03:03:12.133Z,1020.98
2018-12-31T03:04:12.126Z,1020.99
2018-12-31T03:05:12.122Z,1020.98
2018-12-31T03:06:12.124Z,1021.02
2018-12-31T03:07:12.111Z,1021.03
2018-12-31T03:08:12.105Z,1021.05
2018-12-31T03:09:12.099Z,1021.04
2018-12-31T03:10:12.094Z,1021.03
2018-12-31T03:11:12.089Z,1021.02
2018-12-31T03:12:12.085Z,1020.97
2018-12-31T03:13:12.084Z,1020.96
2018-12-31T03:14:12.074Z,1020.96
2018-12-31T03:15:12.170Z,1020.97
2018-12-31T03:16:12.063Z,1020.96
2018-12-31T03:17:12.059Z,1020.97
2018-12-31T03:18:12.051Z,1020.96
2018-12-31T03:19:12.048Z,1020.97
2018-12-31T03:20:12.044Z,1020.98
2018-12-31T03:21:12.038Z,1020.93
2018-12-31T03:22:12.032Z,1020.91
2018-12-31T03:23:12.028Z,1020.92
2018-12-31T03:24:12.024Z,1020.87
2018-12-31T03:25:12.019Z,1020.90
2018-12-31T03:26:12.017Z,1020.89
2018-12-31T03:27:12.007Z,1020.84
2018-12-31T03:28:12.002Z,1020.79
2018-12-31T03:29:11.996Z,1020.83
2018-12-31T03:30:11.992Z,1020.83
2018-12-31T03:31:11.994Z,1020.80
2018-12-31T03:32:11.983Z,1020.84
2018-12-31T03:33:11.977Z,1020.82
2018-12-31T03:34:11.970Z,1020.80
2018-12-31T03:35:11.964Z,1020.81
2018-12-31T03:36:11.968Z,1020.83
2018-12-31T03:37:11.956Z,1020.83
2018-12-31T03:38:11.948Z,1020.84
2018-12-31T03:39:11.951Z,1020.78
2018-12-31T03:40:11.939Z,1020.80
2018-12-31T03:41:11.938Z,1020.83
2018-12-31T03:42:11.928Z,1020.79
2018-12-31T03:43:11.925Z,1020.81
2018-12-31T03:44:11.921Z,1020.75
2018-12-31T03:45:11.913Z,1020.71
2018-12-31T03:46:11.908Z,1020.71
2018-12-31T03:47:12.373Z,1020.64
2018-12-31T03:48:11.897Z,1020.68
2018-12-31T03:49:11.894Z,1020.68
2018-12-31T03:50:11.888Z,1020.70
2018-12-31T03:51:11.933Z,1020.75
2018-12-31T03:52:11.876Z,1020.73
2018-12-31T03:53:11.873Z,1020.75
2018-12-31T03:54:11.867Z,1020.78
2018-12-31T03:55:11.861Z,1020.79
2018-12-31T03:56:11.856Z,1020.78
2018-12-31T03:57:11.852Z,1020.74
2018-12-31T03:58:11.847Z,1020.84
2018-12-31T03:59:11.842Z,1020.80
2018-12-31T04:00:11.835Z,1020.76
2018-12-31T04:01:11.833Z,1020.77
2018-12-31T04:02:11.827Z,1020.80
2018-12-31T04:03:11.820Z,1020.80
2018-12-31T04:04:11.817Z,1020.82
2018-12-31T04:05:11.814Z,1020.87
2018-12-31T04:06:11.805Z,1020.85
2018-12-31T04:07:11.802Z,1020.89
2018-12-31T04:08:11.799Z,1020.88
2018-12-31T04:09:11.791Z,1020.84
2018-12-31T04:10:11.785Z,1020.85
2018-12-31T04:11:11.779Z,1020.85
2018-12-31T04:12:11.775Z,1020.89
2018-12-31T04:13:11.770Z,1020.83
2018-12-31T04:14:11.764Z,1020.86
2018-12-31T04:15:11.761Z,1020.91
2018-12-31T04:16:11.755Z,1020.88
2018-12-31T04:17:11.751Z,1020.95
2018-12-31T04:18:11.746Z,1020.96
2018-12-31T04:19:11.740Z,1020.96
2018-12-31T04:20:11.738Z,1020.95
2018-12-31T04:21:11.729Z,1020.97
2018-12-31T04:22:11.724Z,1020.98
2018-12-31T04:23:11.722Z,1021.01
2018-12-31T04:24:11.715Z,1020.98
2018-12-31T04:25:11.711Z,1020.96
2018-12-31T04:26:11.706Z,1020.96
2018-12-31T04:27:11.700Z,1020.91
2018-12-31T04:28:11.694Z,1021.00
2018-12-31T04:29:11.694Z,1020.98
2018-12-31T04:30:11.685Z,1021.06
2018-12-31T04:31:11.679Z,1021.02
2018-12-31T04:32:11.675Z,1021.08
2018-12-31T04:33:11.672Z,1021.05
2018-12-31T04:34:11.665Z,1021.02
2018-12-31T04:35:11.659Z,1021.00
2018-12-31T04:36:11.657Z,1020.96
2018-12-31T04:37:11.651Z,1020.98
2018-12-31T04:38:11.644Z,1021.00
2018-12-31T04:39:11.639Z,1020.94
2018-12-31T04:40:11.647Z,1020.96
2018-12-31T04:41:11.630Z,1021.00
2018-12-31T04:42:11.625Z,1020.99
2018-12-31T04:43:11.619Z,1021.00
2018-12-31T04:44:11.616Z,1021.06
2018-12-31T04:45:11.609Z,1021.07
2018-12-31T04:46:11.604Z,1021.09
2018-12-31T04:47:11.599Z,1021.06
2018-12-31T04:48:11.597Z,1021.08
2018-12-31T04:49:11.649Z,1021.09
2018-12-31T04:50:11.584Z,1021.06
2018-12-31T04:51:11.578Z,1021.08
2018-12-31T04:52:11.576Z,1021.09
2018-12-31T04:53:11.568Z,1021.11
2018-12-31T04:54:11.563Z,1021.09
2018-12-31T04:55:11.559Z,1021.11
2018-12-31T04:56:11.554Z,1021.11
2018-12-31T04:57:11.547Z,1021.06
2018-12-31T04:58:11.549Z,1021.06
2018-12-31T04:59:11.539Z,1020.99
2018-12-31T05:00:11.536Z,1021.00
2018-12-31T05:01:11.528Z,1021.01
2018-12-31T05:02:11.522Z,1021.08
2018-12-31T05:03:11.617Z,1021.11
2018-12-31T05:04:11.513Z,1021.11
2018-12-31T05:05:11.509Z,1021.06
2018-12-31T05:06:11.504Z,1021.00
2018-12-31T05:07:11.496Z,1021.08
2018-12-31T05:08:11.493Z,1021.03
2018-12-31T05:09:11.489Z,1021.05
2018-12-31T05:10:11.482Z,1021.08
2018-12-31T05:11:11.477Z,1021.06
2018-12-31T05:12:11.472Z,1021.11
2018-12-31T05:13:11.469Z,1021.08
2018-12-31T05:14:11.460Z,1021.08
2018-12-31T05:15:11.457Z,1021.10
2018-12-31T05:16:11.453Z,1021.08
2018-12-31T05:17:11.446Z,1021.11
2018-12-31T05:18:11.444Z,1021.10
2018-12-31T05:19:11.436Z,1021.13
2018-12-31T05:20:11.431Z,1021.12
2018-12-31T05:21:11.429Z,1021.15
2018-12-31T05:22:11.421Z,1021.08
2018-12-31T05:23:11.417Z,1021.07
2018-12-31T05:24:11.411Z,1021.12
2018-12-31T05:25:11.408Z,1021.04
2018-12-31T05:26:11.407Z,1021.11
2018-12-31T05:27:11.397Z,1021.07
2018-12-31T05:28:11.391Z,1021.09
2018-12-31T05:29:11.387Z,1021.09
2018-12-31T05:30:11.381Z,1021.05
2018-12-31T05:31:11.375Z,1021.10
2018-12-31T05:32:11.370Z,1021.07
2018-12-31T05:33:11.368Z,1021.08
2018-12-31T05:34:11.361Z,1021.06
2018-12-31T05:35:11.359Z,1021.08
2018-12-31T05:36:11.350Z,1021.18
2018-12-31T05:37:11.345Z,1021.07
2018-12-31T05:38:11.341Z,1021.10
2018-12-31T05:39:11.336Z,1021.14
2018-12-31T05:40:11.333Z,1021.06
2018-12-31T05:41:11.325Z,1021.10
2018-12-31T05:42:11.320Z,1021.11
2018-12-31T05:43:11.315Z,1021.12
2018-12-31T05:44:11.310Z,1021.09
2018-12-31T05:45:11.307Z,1021.11
2018-12-31T05:46:11.301Z,1021.08
2018-12-31T05:47:11.296Z,1021.13
2018-12-31T05:48:11.291Z,1021.11
2018-12-31T05:49:11.286Z,1021.12
2018-12-31T05:50:11.282Z,1021.08
2018-12-31T05:51:11.274Z,1021.13
2018-12-31T05:52:11.270Z,1021.12
2018-12-31T05:53:11.266Z,1021.09
2018-12-31T05:54:11.260Z,1021.11
2018-12-31T05:55:11.255Z,1021.16
2018-12-31T05:56:11.250Z,1021.18
2018-12-31T05:57:11.245Z,1021.23
2018-12-31T05:58:11.240Z,1021.26
2018-12-31T05:59:11.235Z,1021.29
2018-12-31T06:00:11.230Z,1021.30
2018-12-31T06:01:11.225Z,1021.33
2018-12-31T06:02:11.223Z,1021.32
2018-12-31T06:03:11.214Z,1021.38
2018-12-31T06:04:11.211Z,1021.34
2018-12-31T06:05:11.210Z,1021.37
2018-12-31T06:06:11.199Z,1021.37
2018-12-31T06:07:11.198Z,1021.36
2018-12-31T06:08:11.190Z,1021.37
2018-12-31T06:09:11.184Z,1021.37
2018-12-31T06:10:11.179Z,1021.39
2018-12-31T06:11:11.175Z,1021.36
2018-12-31T06:12:11.170Z,1021.40
2018-12-31T06:13:11.165Z,1021.39
2018-12-31T06:14:11.160Z,1021.44
2018-12-31T06:15:11.154Z,1021.40
2018-12-31T06:16:11.150Z,1021.42
2018-12-31T06:17:11.145Z,1021.45
2018-12-31T06:18:11.139Z,1021.47
2018-12-31T06:19:11.135Z,1021.48
2018-12-31T06:20:11.130Z,1021.53
2018-12-31T06:21:11.125Z,1021.50
2018-12-31T06:22:11.118Z,1021.50
2018-12-31T06:23:11.114Z,1021.49
2018-12-31T06:24:11.110Z,1021.51
2018-12-31T06:25:11.107Z,1021.53
2018-12-31T06:26:11.098Z,1021.51
2018-12-31T06:27:11.095Z,1021.53
2018-12-31T06:28:11.088Z,1021.50
2018-12-31T06:29:11.083Z,1021.53
2018-12-31T06:30:11.078Z,1021.57
2018-12-31T06:31:11.073Z,1021.56
2018-12-31T06:32:11.069Z,1021.55
2018-12-31T06:33:11.063Z,1021.55
2018-12-31T06:34:11.060Z,1021.56
2018-12-31T06:35:11.053Z,1021.58
2018-12-31T06:36:11.049Z,1021.58
2018-12-31T06:37:11.044Z,1021.54
2018-12-31T06:38:11.037Z,1021.56
2018-12-31T06:39:11.033Z,1021.55
2018-12-31T06:40:11.028Z,1021.57
2018-12-31T06:41:11.023Z,1021.56
2018-12-31T06:42:11.018Z,1021.59
2018-12-31T06:43:11.014Z,1021.62
2018-12-31T06:44:11.009Z,1021.63
2018-12-31T06:45:11.005Z,1021.65
2018-12-31T06:46:11.074Z,1021.64
2018-12-31T06:47:10.993Z,1021.61
2018-12-31T06:48:10.988Z,1021.65
2018-12-31T06:49:10.983Z,1021.60
2018-12-31T06:50:10.975Z,1021.61
2018-12-31T06:51:10.972Z,1021.59
2018-12-31T06:52:10.969Z,1021.63
2018-12-31T06:53:10.994Z,1021.65
2018-12-31T06:54:10.958Z,1021.65
2018-12-31T06:55:10.951Z,1021.70
2018-12-31T06:56:10.951Z,1021.71
2018-12-31T06:57:10.941Z,1021.71
2018-12-31T06:58:10.936Z,1021.72
2018-12-31T06:59:10.931Z,1021.77
2018-12-31T07:00:10.926Z,1021.73
2018-12-31T07:01:10.921Z,1021.70
2018-12-31T07:02:10.915Z,1021.69
2018-12-31T07:03:10.916Z,1021.74
2018-12-31T07:04:10.908Z,1021.72
2018-12-31T07:05:10.902Z,1021.75
2018-12-31T07:06:10.895Z,1021.73
2018-12-31T07:07:10.889Z,1021.76
2018-12-31T07:08:10.886Z,1021.78
2018-12-31T07:09:10.885Z,1021.76
2018-12-31T07:10:10.873Z,1021.81
2018-12-31T07:11:10.869Z,1021.83
2018-12-31T07:12:10.864Z,1021.84
2018-12-31T07:13:10.862Z,1021.88
2018-12-31T07:14:10.856Z,1021.87
2018-12-31T07:15:10.850Z,1021.91
2018-12-31T07:16:10.845Z,1021.93
2018-12-31T07:17:10.840Z,1021.97
2018-12-31T07:18:10.834Z,1021.94
2018-12-31T07:19:10.828Z,1021.96
2018-12-31T07:20:10.824Z,1021.95
2018-12-31T07:21:10.818Z,1021.91
2018-12-31T07:22:10.915Z,1022.02
2018-12-31T07:23:10.808Z,1022.00
2018-12-31T07:24:10.802Z,1021.95
2018-12-31T07:25:10.803Z,1022.01
2018-12-31T07:26:10.791Z,1022.07
2018-12-31T07:27:10.789Z,1022.10
2018-12-31T07:28:10.785Z,1022.13
2018-12-31T07:29:10.778Z,1022.15
2018-12-31T07:30:10.771Z,1022.12
2018-12-31T07:31:10.766Z,1022.08
2018-12-31T07:32:10.762Z,1022.12
2018-12-31T07:33:10.757Z,1022.10
2018-12-31T07:34:10.751Z,1022.10
2018-12-31T07:35:11.551Z,1022.14
2018-12-31T07:36:10.742Z,1022.18
2018-12-31T07:37:10.737Z,1022.19
2018-12-31T07:38:10.730Z,1022.20
2018-12-31T07:39:10.725Z,1022.22
2018-12-31T07:40:10.720Z,1022.20
2018-12-31T07:41:10.716Z,1022.16
2018-12-31T07:42:10.710Z,1022.23
2018-12-31T07:43:10.705Z,1022.25
2018-12-31T07:44:10.703Z,1022.29
2018-12-31T07:45:10.696Z,1022.28
2018-12-31T07:46:10.689Z,1022.35
2018-12-31T07:47:10.684Z,1022.32
2018-12-31T07:48:10.680Z,1022.33
2018-12-31T07:49:10.674Z,1022.34
2018-12-31T07:50:10.672Z,1022.37
2018-12-31T07:51:10.663Z,1022.39
2018-12-31T07:52:10.658Z,1022.39
2018-12-31T07:53:10.653Z,1022.42
2018-12-31T07:54:10.729Z,1022.36
2018-12-31T07:55:10.642Z,1022.39
2018-12-31T07:56:10.639Z,1022.42
2018-12-31T07:57:10.635Z,1022.42
2018-12-31T07:58:10.628Z,1022.36
2018-12-31T07:59:10.622Z,1022.36
2018-12-31T08:00:10.618Z,1022.35
2018-12-31T08:01:10.613Z,1022.40
2018-12-31T08:02:10.611Z,1022.34
2018-12-31T08:03:10.602Z,1022.37
2018-12-31T08:04:10.596Z,1022.36
2018-12-31T08:05:10.593Z,1022.37
2018-12-31T08:06:10.587Z,1022.38
2018-12-31T08:07:10.586Z,1022.33
2018-12-31T08:08:10.577Z,1022.38
2018-12-31T08:09:10.574Z,1022.40
2018-12-31T08:10:10.566Z,1022.43
2018-12-31T08:11:10.561Z,1022.35
2018-12-31T08:12:10.557Z,1022.44
2018-12-31T08:13:10.551Z,1022.41
2018-12-31T08:14:10.546Z,1022.46
2018-12-31T08:15:10.541Z,1022.51
2018-12-31T08:16:10.536Z,1022.47
2018-12-31T08:17:10.531Z,1022.46
2018-12-31T08:18:10.526Z,1022.51
2018-12-31T08:19:10.522Z,1022.50
2018-12-31T08:20:10.515Z,1022.54
2018-12-31T08:21:10.513Z,1022.56
2018-12-31T08:22:10.503Z,1022.56
2018-12-31T08:23:10.499Z,1022.57
2018-12-31T08:24:10.495Z,1022.61
2018-12-31T08:25:10.490Z,1022.58
2018-12-31T08:26:10.483Z,1022.59
2018-12-31T08:27:10.478Z,1022.58
2018-12-31T08:28:10.475Z,1022.57
2018-12-31T08:29:10.469Z,1022.59
2018-12-31T08:30:10.464Z,1022.57
2018-12-31T08:31:10.458Z,1022.57
2018-12-31T08:32:10.454Z,1022.59
2018-12-31T08:33:10.448Z,1022.59
2018-12-31T08:34:10.443Z,1022.57
2018-12-31T08:35:10.438Z,1022.63
2018-12-31T08:36:10.434Z,1022.62
2018-12-31T08:37:10.430Z,1022.63
2018-12-31T08:38:10.423Z,1022.69
2018-12-31T08:39:10.418Z,1022.66
2018-12-31T08:40:10.414Z,1022.68
2018-12-31T08:41:10.409Z,1022.64
2018-12-31T08:42:10.404Z,1022.72
2018-12-31T08:43:10.399Z,1022.66
2018-12-31T08:44:10.395Z,1022.71
2018-12-31T08:45:10.388Z,1022.72
2018-12-31T08:46:10.384Z,1022.74
2018-12-31T08:47:10.380Z,1022.72
2018-12-31T08:48:10.374Z,1022.70
2018-12-31T08:49:10.372Z,1022.70
2018-12-31T08:50:10.363Z,1022.66
2018-12-31T08:51:10.357Z,1022.68
2018-12-31T08:52:10.354Z,1022.72
2018-12-31T08:53:10.354Z,1022.67
2018-12-31T08:54:10.341Z,1022.68
2018-12-31T08:55:10.337Z,1022.66
2018-12-31T08:56:10.332Z,1022.67
2018-12-31T08:57:10.328Z,1022.63
2018-12-31T08:58:10.322Z,1022.62
2018-12-31T08:59:10.320Z,1022.60
2018-12-31T09:00:10.312Z,1022.59
2018-12-31T09:01:10.307Z,1022.60
2018-12-31T09:02:10.303Z,1022.60
2018-12-31T09:03:10.296Z,1022.60
2018-12-31T09:04:10.292Z,1022.58
2018-12-31T09:05:10.287Z,1022.57
2018-12-31T09:06:10.281Z,1022.53
2018-12-31T09:07:10.277Z,1022.60
2018-12-31T09:08:10.273Z,1022.57
2018-12-31T09:09:10.271Z,1022.54
2018-12-31T09:10:10.261Z,1022.54
2018-12-31T09:11:10.256Z,1022.59
2018-12-31T09:12:10.254Z,1022.57
2018-12-31T09:13:10.248Z,1022.56
2018-12-31T09:14:10.242Z,1022.55
2018-12-31T09:15:10.236Z,1022.57
2018-12-31T09:16:10.235Z,1022.56
2018-12-31T09:17:10.229Z,1022.57
2018-12-31T09:18:10.226Z,1022.64
2018-12-31T09:19:10.219Z,1022.68
2018-12-31T09:20:10.213Z,1022.66
2018-12-31T09:21:10.208Z,1022.70
2018-12-31T09:22:10.203Z,1022.69
2018-12-31T09:23:10.198Z,1022.71
2018-12-31T09:24:10.194Z,1022.69
2018-12-31T09:25:10.188Z,1022.73
2018-12-31T09:26:10.183Z,1022.73
2018-12-31T09:27:10.178Z,1022.75
2018-12-31T09:28:10.175Z,1022.73
2018-12-31T09:29:10.171Z,1022.75
2018-12-31T09:30:10.164Z,1022.72
2018-12-31T09:31:10.159Z,1022.71
2018-12-31T09:32:10.154Z,1022.64
2018-12-31T09:33:10.151Z,1022.68
2018-12-31T09:34:10.146Z,1022.67
2018-12-31T09:35:10.143Z,1022.64
2018-12-31T09:36:10.135Z,1022.66
2018-12-31T09:37:10.131Z,1022.62
2018-12-31T09:38:10.124Z,1022.67
2018-12-31T09:39:10.120Z,1022.69
2018-12-31T09:40:10.116Z,1022.65
2018-12-31T09:41:10.111Z,1022.70
2018-12-31T09:42:10.107Z,1022.70
2018-12-31T09:43:10.103Z,1022.66
2018-12-31T09:44:10.097Z,1022.68
2018-12-31T09:45:10.093Z,1022.64
2018-12-31T09:46:10.088Z,1022.65
2018-12-31T09:47:10.082Z,1022.64
2018-12-31T09:48:10.079Z,1022.63
2018-12-31T09:49:10.075Z,1022.65
2018-12-31T09:50:10.067Z,1022.66
2018-12-31T09:51:10.063Z,1022.70
2018-12-31T09:52:10.059Z,1022.65
2018-12-31T09:53:10.055Z,1022.70
2018-12-31T09:54:10.050Z,1022.72
2018-12-31T09:55:10.046Z,1022.72
2018-12-31T09:56:10.039Z,1022.78
2018-12-31T09:57:10.036Z,1022.73
2018-12-31T09:58:10.030Z,1022.74
2018-12-31T09:59:10.024Z,1022.77
2018-12-31T10:00:10.023Z,1022.72
2018-12-31T10:01:10.018Z,1022.70
2018-12-31T10:02:10.012Z,1022.70
2018-12-31T10:03:10.005Z,1022.66
2018-12-31T10:04:10.001Z,1022.71
2018-12-31T10:05:09.998Z,1022.69
2018-12-31T10:06:09.991Z,1022.70
2018-12-31T10:07:09.988Z,1022.64
2018-12-31T10:08:09.985Z,1022.68
2018-12-31T10:09:09.979Z,1022.64
2018-12-31T10:10:10.015Z,1022.69
2018-12-31T10:11:09.969Z,1022.70
2018-12-31T10:12:09.964Z,1022.71
2018-12-31T10:13:09.963Z,1022.68
2018-12-31T10:14:09.954Z,1022.71
2018-12-31T10:15:09.951Z,1022.71
2018-12-31T10:16:09.945Z,1022.70
2018-12-31T10:17:09.944Z,1022.68
2018-12-31T10:18:09.937Z,1022.69
2018-12-31T10:19:09.930Z,1022.69
2018-12-31T10:20:09.925Z,1022.71
2018-12-31T10:21:09.925Z,1022.74
2018-12-31T10:22:09.916Z,1022.70
2018-12-31T10:23:09.915Z,1022.69
2018-12-31T10:24:09.911Z,1022.71
2018-12-31T10:25:09.904Z,1022.65
2018-12-31T10:26:09.897Z,1022.69
2018-12-31T10:27:09.894Z,1022.66
2018-12-31T10:28:09.895Z,1022.64
2018-12-31T10:29:09.884Z,1022.63
2018-12-31T10:30:09.878Z,1022.64
2018-12-31T10:31:09.875Z,1022.68
2018-12-31T10:32:09.870Z,1022.69
2018-12-31T10:33:09.867Z,1022.65
2018-12-31T10:34:09.860Z,1022.68
2018-12-31T10:35:09.856Z,1022.69
2018-12-31T10:36:09.851Z,1022.64
2018-12-31T10:37:09.850Z,1022.67
2018-12-31T10:38:09.842Z,1022.65
2018-12-31T10:39:09.838Z,1022.66
2018-12-31T10:40:09.833Z,1022.65
2018-12-31T10:41:09.829Z,1022.59
2018-12-31T10:42:09.824Z,1022.64
2018-12-31T10:43:09.820Z,1022.63
2018-12-31T10:44:09.814Z,1022.66
2018-12-31T10:45:09.811Z,1022.68
2018-12-31T10:46:09.805Z,1022.68
2018-12-31T10:47:09.802Z,1022.65
2018-12-31T10:48:09.798Z,1022.68
2018-12-31T10:49:09.792Z,1022.65
2018-12-31T10:50:09.787Z,1022.64
2018-12-31T10:51:09.784Z,1022.70
2018-12-31T10:52:09.784Z,1022.65
2018-12-31T10:53:09.775Z,1022.59
2018-12-31T10:54:09.770Z,1022.64
2018-12-31T10:55:09.767Z,1022.66
2018-12-31T10:56:09.762Z,1022.63
2018-12-31T10:57:09.758Z,1022.59
2018-12-31T10:58:09.752Z,1022.59
2018-12-31T10:59:09.748Z,1022.62
2018-12-31T11:00:09.744Z,1022.55
2018-12-31T11:01:09.739Z,1022.58
2018-12-31T11:02:09.735Z,1022.61
2018-12-31T11:03:09.729Z,1022.63
2018-12-31T11:04:09.729Z,1022.64
2018-12-31T11:05:09.722Z,1022.59
2018-12-31T11:06:09.720Z,1022.61
2018-12-31T11:07:09.711Z,1022.55
2018-12-31T11:08:10.591Z,1022.55
2018-12-31T11:09:09.702Z,1022.58
2018-12-31T11:10:09.700Z,1022.52
2018-12-31T11:11:09.694Z,1022.52
2018-12-31T11:12:09.689Z,1022.51
2018-12-31T11:13:09.685Z,1022.52
2018-12-31T11:14:09.683Z,1022.55
2018-12-31T11:15:09.676Z,1022.56
2018-12-31T11:16:09.673Z,1022.55
2018-12-31T11:17:09.666Z,1022.54
2018-12-31T11:18:09.662Z,1022.54
2018-12-31T11:19:09.659Z,1022.55
2018-12-31T11:20:09.655Z,1022.53
2018-12-31T11:21:09.652Z,1022.53
2018-12-31T11:22:09.644Z,1022.50
2018-12-31T11:23:09.641Z,1022.51
2018-12-31T11:24:09.636Z,1022.47
2018-12-31T11:25:09.633Z,1022.44
2018-12-31T11:26:09.629Z,1022.45
2018-12-31T11:27:09.624Z,1022.49
2018-12-31T11:28:09.620Z,1022.43
2018-12-31T11:29:09.613Z,1022.46
2018-12-31T11:30:09.610Z,1022.50
2018-12-31T11:31:09.604Z,1022.47
2018-12-31T11:32:09.601Z,1022.44
2018-12-31T11:33:09.597Z,1022.45
2018-12-31T11:34:09.590Z,1022.43
2018-12-31T11:35:09.586Z,1022.40
2018-12-31T11:36:09.584Z,1022.45
2018-12-31T11:37:09.577Z,1022.42
2018-12-31T11:38:09.573Z,1022.37
2018-12-31T11:39:09.570Z,1022.42
2018-12-31T11:40:09.566Z,1022.39
2018-12-31T11:41:09.560Z,1022.30
2018-12-31T11:42:09.554Z,1022.33
2018-12-31T11:43:09.550Z,1022.29
2018-12-31T11:44:09.546Z,1022.25
2018-12-31T11:45:09.542Z,1022.20
2018-12-31T11:46:09.537Z,1022.20
2018-12-31T11:47:09.532Z,1022.22
2018-12-31T11:48:09.528Z,1022.23
2018-12-31T11:49:09.525Z,1022.21
2018-12-31T11:50:09.518Z,1022.23
2018-12-31T11:51:09.515Z,1022.21
2018-12-31T11:52:09.511Z,1022.20
2018-12-31T11:53:09.505Z,1022.16
2018-12-31T11:54:09.500Z,1022.19
2018-12-31T11:55:09.503Z,1022.21
2018-12-31T11:56:09.491Z,1022.17
2018-12-31T11:57:09.488Z,1022.17
2018-12-31T11:58:09.486Z,1022.11
2018-12-31T11:59:09.479Z,1022.10
2018-12-31T12:00:09.473Z,1022.13
2018-12-31T12:01:09.470Z,1022.11
2018-12-31T12:02:09.465Z,1022.12
2018-12-31T12:03:09.460Z,1022.12
2018-12-31T12:04:09.457Z,1022.08
2018-12-31T12:05:09.452Z,1022.14